createdAt,value
2019-03-20T00:01:03.634Z,26.30
2019-03-20T00:03:33.960Z,22.25
2019-03-20T00:06:03.622Z,23.43
2019-03-20T00:08:33.835Z,20.20
2019-03-20T00:11:04.186Z,24.73
2019-03-20T00:13:34.554Z,27.42
2019-03-20T00:16:04.239Z,26.40
2019-03-20T00:18:34.447Z,25.63
2019-03-20T00:21:04.792Z,23.42
2019-03-20T00:23:35.143Z,23.90
2019-03-20T00:26:05.592Z,23.93
2019-03-20T00:28:35.907Z,28.67
2019-03-20T00:31:06.245Z,33.17
2019-03-20T00:33:36.544Z,26.93
2019-03-20T00:36:06.887Z,26.53
2019-03-20T00:38:37.242Z,25.82
2019-03-20T00:41:07.554Z,23.17
2019-03-20T00:43:37.824Z,31.43
2019-03-20T00:46:08.139Z,31.57
2019-03-20T00:48:38.475Z,29.35
2019-03-20T00:51:08.147Z,28.53
2019-03-20T00:53:38.383Z,20.10
2019-03-20T00:56:08.087Z,35.80
2019-03-20T00:58:39.774Z,30.23
2019-03-20T01:01:09.554Z,30.87
2019-03-20T01:03:41.040Z,27.93
2019-03-20T01:06:11.315Z,29.43
2019-03-20T01:08:41.623Z,25.57
2019-03-20T01:11:12.002Z,25.63
2019-03-20T01:13:41.691Z,30.73
2019-03-20T01:16:11.274Z,26.93
2019-03-20T01:18:41.432Z,29.73
2019-03-20T01:21:11.760Z,31.17
2019-03-20T01:23:42.220Z,26.80
2019-03-20T01:26:12.544Z,23.33
2019-03-20T01:28:42.851Z,24.30
2019-03-20T01:31:13.192Z,24.07
2019-03-20T01:33:43.535Z,28.43
2019-03-20T01:36:13.869Z,23.90
2019-03-20T01:38:44.317Z,24.90
2019-03-20T01:41:15.243Z,23.57
2019-03-20T01:43:45.592Z,25.57
2019-03-20T01:46:15.279Z,23.80
2019-03-20T01:48:45.500Z,30.23
2019-03-20T01:51:22.555Z,28.20
2019-03-20T01:53:53.010Z,24.70
2019-03-20T01:56:23.046Z,28.57
2019-03-20T01:58:53.284Z,23.87
2019-03-20T02:01:23.607Z,31.67
2019-03-20T02:03:53.954Z,27.30
2019-03-20T02:06:24.271Z,30.07
2019-03-20T02:08:54.599Z,27.70
2019-03-20T02:11:24.899Z,37.27
2019-03-20T02:13:55.236Z,26.60
2019-03-20T02:16:25.568Z,38.63
2019-03-20T02:18:55.888Z,30.07
2019-03-20T02:21:26.219Z,30.35
2019-03-20T02:23:56.548Z,39.10
2019-03-20T02:26:26.884Z,25.53
2019-03-20T02:28:57.228Z,29.00
2019-03-20T02:31:27.550Z,24.92
2019-03-20T02:33:57.877Z,32.65
2019-03-20T02:36:27.548Z,36.13
2019-03-20T02:38:57.758Z,30.97
2019-03-20T02:41:28.132Z,39.40
2019-03-20T02:43:58.472Z,31.03
2019-03-20T02:46:28.161Z,26.77
2019-03-20T02:48:58.382Z,27.50
2019-03-20T02:51:28.736Z,34.97
2019-03-20T02:53:59.054Z,26.20
2019-03-20T02:56:28.735Z,36.20
2019-03-20T02:58:58.940Z,22.17
2019-03-20T03:01:29.280Z,32.73
2019-03-20T03:03:58.960Z,29.23
2019-03-20T03:06:29.213Z,32.17
2019-03-20T03:08:59.545Z,26.00
2019-03-20T03:11:29.868Z,31.67
2019-03-20T03:13:59.516Z,21.03
2019-03-20T03:16:29.771Z,28.37
2019-03-20T03:18:59.438Z,26.30
2019-03-20T03:21:29.660Z,36.90
2019-03-20T03:23:59.332Z,27.53
2019-03-20T03:26:28.978Z,21.37
2019-03-20T03:28:59.234Z,28.40
2019-03-20T03:31:29.581Z,28.52
2019-03-20T03:33:59.876Z,22.20
2019-03-20T03:36:30.221Z,20.92
2019-03-20T03:39:00.656Z,25.40
2019-03-20T03:41:31.193Z,29.53
2019-03-20T03:44:01.604Z,30.37
2019-03-20T03:46:31.957Z,24.33
2019-03-20T03:49:02.319Z,28.83
2019-03-20T03:51:32.612Z,36.33
2019-03-20T03:54:02.273Z,25.27
2019-03-20T03:56:32.504Z,27.33
2019-03-20T03:59:02.945Z,29.17
2019-03-20T04:01:33.262Z,21.57
2019-03-20T04:04:03.596Z,31.07
2019-03-20T04:06:35.779Z,28.83
2019-03-20T04:09:07.659Z,22.10
2019-03-20T04:11:37.984Z,27.87
2019-03-20T04:14:08.407Z,23.60
2019-03-20T04:16:38.099Z,20.50
2019-03-20T04:19:08.330Z,26.17
2019-03-20T04:21:38.653Z,25.47
2019-03-20T04:24:08.997Z,26.67
2019-03-20T04:26:38.686Z,28.67
2019-03-20T04:29:08.941Z,26.30
2019-03-20T04:31:39.258Z,30.70
2019-03-20T04:34:09.598Z,19.50
2019-03-20T04:36:47.781Z,22.87
2019-03-20T04:39:11.165Z,29.83
2019-03-20T04:41:40.824Z,25.17
2019-03-20T04:44:11.060Z,24.73
2019-03-20T04:46:40.738Z,20.50
2019-03-20T04:49:10.300Z,17.93
2019-03-20T04:51:40.523Z,30.20
2019-03-20T04:54:10.187Z,25.50
2019-03-20T04:56:39.767Z,22.63
2019-03-20T04:59:10.028Z,19.00
2019-03-20T05:01:40.353Z,19.13
2019-03-20T05:04:10.027Z,19.43
2019-03-20T05:06:39.627Z,22.32
2019-03-20T05:09:09.862Z,21.63
2019-03-20T05:11:40.213Z,25.37
2019-03-20T05:14:12.322Z,17.83
2019-03-20T05:16:41.744Z,19.40
2019-03-20T05:19:12.069Z,19.70
2019-03-20T05:21:42.399Z,14.83
2019-03-20T05:24:12.083Z,22.37
2019-03-20T05:26:42.311Z,27.63
2019-03-20T05:29:11.927Z,23.27
2019-03-20T05:31:42.185Z,17.97
2019-03-20T05:34:11.859Z,25.70
2019-03-20T05:36:42.095Z,16.07
2019-03-20T05:39:11.771Z,17.67
2019-03-20T05:41:41.999Z,18.37
2019-03-20T05:44:12.343Z,12.63
2019-03-20T05:46:42.652Z,20.53
2019-03-20T05:49:12.975Z,25.37
2019-03-20T05:51:43.304Z,24.57
2019-03-20T05:54:14.855Z,19.00
2019-03-20T05:56:45.158Z,23.77
2019-03-20T05:59:15.478Z,16.73
2019-03-20T06:01:45.799Z,18.00
2019-03-20T06:04:16.134Z,20.93
2019-03-20T06:06:46.447Z,20.27
2019-03-20T06:09:16.781Z,20.13
2019-03-20T06:11:47.092Z,22.07
2019-03-20T06:14:17.457Z,18.97
2019-03-20T06:16:47.777Z,32.87
2019-03-20T06:19:18.111Z,28.63
2019-03-20T06:21:48.421Z,31.57
2019-03-20T06:24:18.756Z,24.27
2019-03-20T06:26:49.076Z,25.10
2019-03-20T06:29:20.240Z,22.63
2019-03-20T06:31:50.645Z,17.03
2019-03-20T06:34:20.995Z,26.17
2019-03-20T06:36:51.332Z,20.43
2019-03-20T06:39:22.191Z,16.83
2019-03-20T06:41:52.569Z,15.70
2019-03-20T06:44:22.870Z,13.07
2019-03-20T06:46:53.182Z,27.07
2019-03-20T06:49:23.514Z,15.40
2019-03-20T06:51:53.850Z,21.83
2019-03-20T06:54:23.542Z,23.67
2019-03-20T06:56:53.770Z,23.37
2019-03-20T06:59:26.959Z,24.63
2019-03-20T07:01:57.375Z,22.40
2019-03-20T07:04:34.355Z,23.97
2019-03-20T07:07:24.157Z,23.37
2019-03-20T07:10:27.542Z,19.00
2019-03-20T07:12:57.866Z,18.97
2019-03-20T07:15:28.216Z,19.43
2019-03-20T07:17:57.852Z,10.63
2019-03-20T07:20:28.118Z,13.80
2019-03-20T07:22:58.435Z,13.90
2019-03-20T07:25:28.772Z,11.17
2019-03-20T07:27:58.514Z,12.20
2019-03-20T07:30:28.786Z,16.07
2019-03-20T07:32:59.090Z,11.80
2019-03-20T07:35:29.419Z,9.63
2019-03-20T07:37:59.117Z,13.70
2019-03-20T07:40:29.392Z,11.67
2019-03-20T07:43:08.292Z,14.23
2019-03-20T07:45:31.047Z,11.13
2019-03-20T07:48:01.275Z,14.70
2019-03-20T07:50:31.659Z,16.37
2019-03-20T07:53:01.975Z,14.47
2019-03-20T07:55:32.340Z,19.50
2019-03-20T07:58:02.683Z,13.93
2019-03-20T08:00:33.033Z,20.63
2019-03-20T08:03:03.360Z,16.00
2019-03-20T08:05:33.892Z,11.50
2019-03-20T08:08:07.547Z,14.20
2019-03-20T08:10:35.420Z,16.43
2019-03-20T08:13:05.761Z,22.03
2019-03-20T08:15:35.511Z,22.80
2019-03-20T08:18:05.148Z,15.73
2019-03-20T08:20:35.402Z,11.23
2019-03-20T08:23:07.207Z,20.97
2019-03-20T08:25:37.765Z,17.53
2019-03-20T08:28:08.103Z,10.33
2019-03-20T08:30:38.435Z,10.33
2019-03-20T08:33:08.766Z,17.07
2019-03-20T08:35:39.099Z,10.38
2019-03-20T08:38:17.781Z,9.87
2019-03-20T08:40:41.375Z,7.37
2019-03-20T08:43:11.735Z,12.77
2019-03-20T08:45:42.099Z,13.20
2019-03-20T08:48:12.574Z,12.63
2019-03-20T08:50:42.879Z,7.03
2019-03-20T08:53:13.228Z,10.97
2019-03-20T08:55:43.559Z,10.80
2019-03-20T08:58:13.241Z,12.17
2019-03-20T09:00:43.483Z,15.03
2019-03-20T09:03:13.846Z,15.27
2019-03-20T09:05:44.167Z,10.30
2019-03-20T09:08:14.480Z,14.00
2019-03-20T09:10:44.812Z,13.07
2019-03-20T09:13:15.170Z,10.93
2019-03-20T09:15:44.851Z,11.97
2019-03-20T09:18:14.432Z,16.20
2019-03-20T09:20:44.051Z,14.03
2019-03-20T09:23:13.603Z,11.83
2019-03-20T09:25:43.850Z,13.77
2019-03-20T09:28:14.178Z,13.63
2019-03-20T09:30:44.519Z,12.90
2019-03-20T09:33:14.857Z,7.00
2019-03-20T09:35:45.181Z,6.90
2019-03-20T09:38:14.864Z,12.77
2019-03-20T09:40:44.451Z,11.27
2019-03-20T09:43:14.894Z,11.20
2019-03-20T09:45:44.573Z,10.30
2019-03-20T09:48:14.160Z,14.40
2019-03-20T09:50:44.442Z,13.63
2019-03-20T09:53:14.102Z,14.67
2019-03-20T09:55:44.335Z,15.20
2019-03-20T09:58:14.678Z,15.93
2019-03-20T10:00:45.001Z,12.33
2019-03-20T10:03:15.348Z,15.67
2019-03-20T10:05:45.031Z,13.13
2019-03-20T10:08:15.257Z,12.93
2019-03-20T10:10:44.936Z,63.70
2019-03-20T10:13:15.264Z,102.03
2019-03-20T10:15:44.919Z,14.40
2019-03-20T10:18:15.148Z,12.00
2019-03-20T10:20:44.827Z,36.03
2019-03-20T10:23:15.080Z,17.67
2019-03-20T10:25:45.438Z,30.03
2019-03-20T10:28:15.115Z,13.22
2019-03-20T10:30:45.391Z,17.63
2019-03-20T10:33:16.715Z,11.57
2019-03-20T10:35:50.461Z,16.37
2019-03-20T10:38:19.029Z,16.53
2019-03-20T10:40:49.372Z,9.13
2019-03-20T10:43:20.612Z,10.10
2019-03-20T10:45:50.944Z,12.70
2019-03-20T10:48:21.286Z,10.13
2019-03-20T10:50:50.979Z,13.95
2019-03-20T10:53:21.225Z,12.90
2019-03-20T10:55:51.957Z,13.40
2019-03-20T10:58:22.522Z,11.30
2019-03-20T11:00:52.848Z,7.70
2019-03-20T11:03:23.175Z,9.50
2019-03-20T11:05:53.695Z,11.53
2019-03-20T11:08:23.345Z,7.53
2019-03-20T11:10:53.697Z,8.50
2019-03-20T11:13:24.128Z,9.93
2019-03-20T11:15:54.455Z,12.03
2019-03-20T11:18:24.828Z,8.00
2019-03-20T11:20:55.269Z,8.07
2019-03-20T11:23:25.723Z,6.97
2019-03-20T11:25:56.026Z,6.70
2019-03-20T11:28:25.715Z,5.73
2019-03-20T11:30:55.984Z,8.43
2019-03-20T11:33:26.320Z,5.30
2019-03-20T11:35:56.802Z,6.33
2019-03-20T11:38:26.419Z,4.37
2019-03-20T11:40:56.096Z,6.33
2019-03-20T11:43:26.393Z,8.07
2019-03-20T11:45:56.068Z,4.10
2019-03-20T11:48:26.425Z,8.57
2019-03-20T11:50:56.167Z,8.60
2019-03-20T11:53:26.438Z,7.07
2019-03-20T11:55:56.130Z,5.50
2019-03-20T11:58:26.480Z,8.67
2019-03-20T12:00:56.242Z,6.13
2019-03-20T12:03:26.499Z,4.57
2019-03-20T12:05:56.167Z,6.20
2019-03-20T12:08:26.544Z,4.67
2019-03-20T12:10:56.223Z,3.37
2019-03-20T12:13:26.503Z,3.70
2019-03-20T12:15:56.171Z,4.00
2019-03-20T12:18:26.461Z,5.37
2019-03-20T12:20:56.144Z,4.87
2019-03-20T12:23:26.439Z,5.20
2019-03-20T12:25:56.125Z,3.33
2019-03-20T12:28:26.404Z,4.83
2019-03-20T12:30:56.075Z,4.13
2019-03-20T12:33:26.335Z,3.50
2019-03-20T12:35:56.741Z,3.27
2019-03-20T12:38:27.115Z,3.20
2019-03-20T12:40:56.799Z,5.40
2019-03-20T12:43:29.120Z,4.35
2019-03-20T12:46:00.455Z,1.93
2019-03-20T12:48:30.191Z,2.23
2019-03-20T12:51:00.426Z,1.97
2019-03-20T12:53:31.852Z,3.27
2019-03-20T12:56:02.238Z,5.10
2019-03-20T12:58:32.570Z,2.23
2019-03-20T13:01:02.931Z,3.70
2019-03-20T13:03:33.263Z,3.37
2019-03-20T13:06:02.966Z,2.30
2019-03-20T13:08:33.268Z,3.50
2019-03-20T13:11:02.977Z,4.13
2019-03-20T13:13:32.591Z,5.17
2019-03-20T13:16:02.207Z,1.70
2019-03-20T13:18:32.498Z,2.87
2019-03-20T13:21:02.951Z,3.27
2019-03-20T13:23:32.754Z,1.75
2019-03-20T13:26:02.397Z,2.30
2019-03-20T13:28:32.012Z,4.57
2019-03-20T13:31:02.999Z,4.53
2019-03-20T13:33:32.631Z,3.07
2019-03-20T13:36:02.230Z,0.80
2019-03-20T13:38:32.595Z,2.97
2019-03-20T13:41:03.050Z,4.07
2019-03-20T13:43:33.427Z,3.30
2019-03-20T13:46:03.403Z,4.07
2019-03-20T13:48:33.707Z,2.47
2019-03-20T13:51:04.045Z,2.97
2019-03-20T13:53:33.736Z,2.33
2019-03-20T13:56:03.310Z,2.87
2019-03-20T13:58:32.951Z,2.97
2019-03-20T14:01:03.308Z,2.13
2019-03-20T14:03:33.755Z,2.10
2019-03-20T14:06:03.482Z,1.20
2019-03-20T14:08:33.776Z,1.23
2019-03-20T14:11:04.340Z,1.87
2019-03-20T14:13:34.700Z,3.47
2019-03-20T14:16:04.392Z,4.00
2019-03-20T14:18:34.670Z,0.53
2019-03-20T14:21:05.059Z,0.73
2019-03-20T14:23:35.399Z,0.70
2019-03-20T14:26:05.095Z,0.93
2019-03-20T14:28:35.374Z,0.97
2019-03-20T14:31:05.744Z,0.53
2019-03-20T14:33:36.091Z,0.83
2019-03-20T14:36:06.451Z,0.57
2019-03-20T14:38:36.839Z,0.40
2019-03-20T14:41:06.628Z,0.77
2019-03-20T14:43:36.260Z,0.70
2019-03-20T14:46:06.533Z,0.50
2019-03-20T14:48:36.939Z,1.00
2019-03-20T14:51:07.397Z,0.60
2019-03-20T14:53:37.731Z,0.73
2019-03-20T14:56:08.098Z,2.57
2019-03-20T14:58:38.449Z,0.70
2019-03-20T15:01:08.861Z,1.20
2019-03-20T15:03:38.556Z,1.83
2019-03-20T15:06:08.201Z,1.03
2019-03-20T15:08:38.451Z,3.77
2019-03-20T15:11:08.846Z,1.33
2019-03-20T15:13:39.195Z,1.20
2019-03-20T15:16:10.390Z,2.43
2019-03-20T15:18:40.671Z,1.90
2019-03-20T15:21:11.035Z,1.20
2019-03-20T15:23:41.403Z,1.33
2019-03-20T15:26:11.763Z,1.70
2019-03-20T15:28:42.127Z,1.50
2019-03-20T15:31:11.887Z,2.23
2019-03-20T15:33:42.197Z,2.87
2019-03-20T15:36:12.584Z,2.40
2019-03-20T15:38:42.995Z,2.53
2019-03-20T15:41:14.050Z,2.10
2019-03-20T15:43:43.831Z,3.50
2019-03-20T15:46:13.419Z,4.60
2019-03-20T15:48:43.031Z,3.40
2019-03-20T15:51:13.274Z,3.10
2019-03-20T15:53:43.620Z,3.10
2019-03-20T15:56:13.968Z,2.87
2019-03-20T15:58:44.323Z,2.93
2019-03-20T16:01:14.673Z,2.70
2019-03-20T16:03:45.024Z,4.33
2019-03-20T16:06:15.387Z,3.13
2019-03-20T16:08:45.723Z,3.83
2019-03-20T16:11:16.075Z,4.70
2019-03-20T16:13:46.515Z,2.77
2019-03-20T16:16:16.230Z,3.07
2019-03-20T16:18:47.454Z,3.77
2019-03-20T16:21:17.123Z,3.63
2019-03-20T16:23:47.425Z,3.53
2019-03-20T16:26:17.144Z,2.97
2019-03-20T16:28:47.380Z,3.33
2019-03-20T16:31:17.077Z,2.50
2019-03-20T16:33:47.403Z,3.23
2019-03-20T16:36:17.151Z,2.40
2019-03-20T16:38:47.434Z,2.00
2019-03-20T16:41:17.819Z,2.87
2019-03-20T16:43:47.514Z,2.67
2019-03-20T16:46:17.136Z,3.10
2019-03-20T16:48:47.386Z,3.47
2019-03-20T16:51:17.746Z,4.23
2019-03-20T16:53:47.433Z,2.83
2019-03-20T16:56:17.068Z,3.37
2019-03-20T16:58:47.391Z,3.83
2019-03-20T17:01:18.064Z,4.07
2019-03-20T17:03:48.554Z,3.90
2019-03-20T17:06:18.279Z,4.10
2019-03-20T17:08:47.905Z,5.13
2019-03-20T17:11:27.442Z,4.90
2019-03-20T17:13:49.487Z,3.33
2019-03-20T17:16:19.789Z,6.70
2019-03-20T17:18:50.201Z,4.07
2019-03-20T17:21:20.815Z,3.57
2019-03-20T17:23:51.063Z,3.27
2019-03-20T17:26:21.975Z,6.40
2019-03-20T17:28:51.759Z,4.63
2019-03-20T17:31:22.209Z,4.70
2019-03-20T17:33:52.647Z,2.60
2019-03-20T17:36:22.614Z,2.20
2019-03-20T17:38:52.523Z,3.77
2019-03-20T17:41:22.800Z,2.50
2019-03-20T17:43:53.242Z,2.53
2019-03-20T17:46:22.961Z,3.77
2019-03-20T17:48:53.272Z,2.97
2019-03-20T17:51:22.991Z,3.30
2019-03-20T17:53:52.593Z,2.77
2019-03-20T17:56:22.221Z,2.03
2019-03-20T17:58:51.885Z,4.67
2019-03-20T18:01:22.160Z,2.90
2019-03-20T18:03:51.881Z,4.93
2019-03-20T18:06:22.146Z,3.23
2019-03-20T18:08:51.870Z,2.17
2019-03-20T18:11:22.160Z,1.87
2019-03-20T18:13:51.913Z,1.60
2019-03-20T18:16:22.172Z,3.67
2019-03-20T18:18:51.895Z,1.30
2019-03-20T18:21:21.486Z,4.07
2019-03-20T18:23:51.876Z,4.20
2019-03-20T18:26:22.214Z,3.30
2019-03-20T18:28:51.915Z,3.73
2019-03-20T18:31:22.184Z,3.80
2019-03-20T18:33:51.884Z,3.03
2019-03-20T18:36:22.132Z,2.53
2019-03-20T18:38:51.842Z,2.73
2019-03-20T18:41:22.102Z,3.43
2019-03-20T18:43:51.799Z,2.23
2019-03-20T18:46:22.058Z,3.27
2019-03-20T18:48:52.407Z,2.10
2019-03-20T18:51:22.081Z,1.90
2019-03-20T18:53:52.369Z,4.30
2019-03-20T18:56:22.065Z,2.47
2019-03-20T18:58:52.344Z,3.03
2019-03-20T19:01:22.021Z,2.50
2019-03-20T19:03:51.636Z,3.87
2019-03-20T19:06:24.476Z,3.50
2019-03-20T19:08:54.204Z,3.00
2019-03-20T19:11:25.535Z,1.70
2019-03-20T19:13:57.715Z,1.23
2019-03-20T19:16:28.107Z,3.65
2019-03-20T19:18:58.972Z,1.93
2019-03-20T19:21:29.387Z,3.17
2019-03-20T19:24:00.365Z,3.70
2019-03-20T19:26:31.070Z,3.20
2019-03-20T19:29:01.059Z,3.87
2019-03-20T19:31:31.369Z,5.10
2019-03-20T19:34:01.451Z,4.57
2019-03-20T19:36:31.711Z,4.45
2019-03-20T19:39:01.451Z,3.47
2019-03-20T19:41:31.092Z,5.27
2019-03-20T19:44:01.014Z,7.40
2019-03-20T19:46:30.711Z,4.67
2019-03-20T19:49:01.640Z,2.77
2019-03-20T19:51:31.899Z,3.03
2019-03-20T19:54:01.888Z,3.07
2019-03-20T19:56:32.145Z,1.97
2019-03-20T19:59:03.622Z,2.80
2019-03-20T20:01:33.868Z,5.07
2019-03-20T20:04:03.789Z,3.83
2019-03-20T20:06:33.392Z,4.53
2019-03-20T20:09:04.596Z,4.47
2019-03-20T20:11:34.999Z,5.10
2019-03-20T20:14:05.675Z,3.53
2019-03-20T20:16:36.163Z,3.63
2019-03-20T20:19:05.844Z,2.97
2019-03-20T20:21:36.111Z,3.40
2019-03-20T20:24:05.806Z,2.80
2019-03-20T20:26:36.083Z,2.97
2019-03-20T20:29:05.803Z,3.60
2019-03-20T20:31:36.123Z,3.30
2019-03-20T20:34:06.119Z,4.60
2019-03-20T20:36:36.499Z,4.40
2019-03-20T20:39:08.054Z,3.50
2019-03-20T20:41:38.360Z,4.80
2019-03-20T20:44:08.094Z,3.43
2019-03-20T20:46:38.400Z,6.23
2019-03-20T20:49:08.119Z,2.90
2019-03-20T20:51:38.399Z,3.60
2019-03-20T20:54:08.128Z,2.90
2019-03-20T20:56:38.528Z,2.80
2019-03-20T20:59:09.025Z,3.87
2019-03-20T21:01:39.379Z,2.80
2019-03-20T21:04:09.079Z,3.70
2019-03-20T21:06:39.795Z,5.03
2019-03-20T21:09:09.441Z,4.43
2019-03-20T21:11:39.765Z,4.43
2019-03-20T21:14:09.510Z,3.00
2019-03-20T21:16:40.262Z,4.30
2019-03-20T21:19:28.955Z,4.40
2019-03-20T21:22:40.517Z,3.83
2019-03-20T21:25:11.696Z,4.10
2019-03-20T21:28:27.967Z,4.00
2019-03-20T21:31:25.261Z,6.83
2019-03-20T21:34:33.751Z,4.30
2019-03-20T21:37:43.225Z,4.30
2019-03-20T21:40:16.049Z,4.77
2019-03-20T21:43:51.623Z,4.80
2019-03-20T21:46:38.714Z,4.53
2019-03-20T21:49:09.533Z,4.17
2019-03-20T21:51:40.415Z,4.90
2019-03-20T21:54:48.895Z,6.53
2019-03-20T21:57:54.479Z,5.80
2019-03-20T22:00:42.218Z,6.57
2019-03-20T22:03:17.425Z,8.77
2019-03-20T22:06:05.351Z,10.80
2019-03-20T22:08:35.225Z,10.77
2019-03-20T22:11:45.230Z,10.53
2019-03-20T22:14:16.437Z,10.73
2019-03-20T22:17:04.038Z,10.37
2019-03-20T22:20:27.307Z,7.57
2019-03-20T22:23:35.155Z,6.40
2019-03-20T22:26:35.566Z,6.07
2019-03-20T22:29:28.652Z,8.93
2019-03-20T22:32:49.091Z,9.80
2019-03-20T22:35:43.882Z,11.10
2019-03-20T22:38:20.121Z,10.27
2019-03-20T22:41:26.810Z,8.70
2019-03-20T22:44:01.283Z,7.33
2019-03-20T22:47:10.454Z,10.93
2019-03-20T22:50:11.183Z,10.27
2019-03-20T22:53:17.919Z,6.83
2019-03-20T22:56:25.140Z,8.23
2019-03-20T22:58:56.012Z,6.90
2019-03-20T23:01:40.558Z,4.70
2019-03-20T23:04:22.117Z,5.83
2019-03-20T23:06:52.971Z,8.03
2019-03-20T23:09:22.895Z,5.77
2019-03-20T23:11:53.675Z,5.20
2019-03-20T23:14:23.624Z,4.60
2019-03-20T23:16:53.509Z,8.27
2019-03-20T23:19:23.334Z,6.63
2019-03-20T23:21:54.138Z,4.90
2019-03-20T23:24:25.007Z,5.70
2019-03-20T23:26:55.525Z,5.37
2019-03-20T23:29:25.364Z,4.10
2019-03-20T23:31:56.114Z,4.10
2019-03-20T23:34:26.056Z,5.73
2019-03-20T23:36:56.895Z,4.63
2019-03-20T23:39:26.838Z,5.83
2019-03-20T23:41:57.624Z,7.12
2019-03-20T23:44:28.507Z,6.10
2019-03-20T23:46:59.427Z,4.70
2019-03-20T23:49:30.319Z,4.60
2019-03-20T23:52:01.183Z,4.57
2019-03-20T23:54:51.963Z,3.80
2019-03-20T23:57:22.826Z,5.17
2019-03-20T23:59:54.758Z,3.53
